createdAt,value
2018-03-26T00:01:01.567Z,62.10
2018-03-26T00:03:30.679Z,62.63
2018-03-26T00:05:58.999Z,62.20
2018-03-26T00:08:28.031Z,65.67
2018-03-26T00:10:56.293Z,60.10
2018-03-26T00:13:24.557Z,69.27
2018-03-26T00:15:53.732Z,54.43
2018-03-26T00:18:23.228Z,55.90
2018-03-26T00:20:52.253Z,57.70
2018-03-26T00:23:21.241Z,59.53
2018-03-26T00:25:49.500Z,62.47
2018-03-26T00:28:18.532Z,54.17
2018-03-26T00:30:46.801Z,61.20
2018-03-26T00:33:15.073Z,55.13
2018-03-26T00:35:43.362Z,59.37
2018-03-26T00:38:11.635Z,61.40
2018-03-26T00:40:39.912Z,58.30
2018-03-26T00:43:08.171Z,63.87
2018-03-26T00:45:36.442Z,66.70
2018-03-26T00:48:04.712Z,55.87
2018-03-26T00:50:33.747Z,64.37
2018-03-26T00:53:02.019Z,65.10
2018-03-26T00:55:30.312Z,65.73
2018-03-26T00:57:58.584Z,56.70
2018-03-26T01:00:26.845Z,66.30
2018-03-26T01:02:55.112Z,62.60
2018-03-26T01:05:23.401Z,56.13
2018-03-26T01:07:53.037Z,63.43
2018-03-26T01:10:21.313Z,61.60
2018-03-26T01:12:49.571Z,65.80
2018-03-26T01:15:17.829Z,60.83
2018-03-26T01:17:46.095Z,63.90
2018-03-26T01:20:14.365Z,66.53
2018-03-26T01:22:42.664Z,64.87
2018-03-26T01:25:10.939Z,62.97
2018-03-26T01:27:39.208Z,55.70
2018-03-26T01:30:08.841Z,66.50
2018-03-26T01:32:37.113Z,58.77
2018-03-26T01:35:05.371Z,66.40
2018-03-26T01:37:33.643Z,63.77
2018-03-26T01:40:01.906Z,55.57
2018-03-26T01:42:30.190Z,81.47
2018-03-26T01:44:59.282Z,62.87
2018-03-26T01:47:27.540Z,62.60
2018-03-26T01:49:55.809Z,59.57
2018-03-26T01:52:24.841Z,60.47
2018-03-26T01:54:53.110Z,65.53
2018-03-26T01:57:21.458Z,63.40
2018-03-26T01:59:50.476Z,56.00
2018-03-26T02:02:18.734Z,66.47
2018-03-26T02:04:47.073Z,67.10
2018-03-26T02:07:16.056Z,55.53
2018-03-26T02:09:44.320Z,64.33
2018-03-26T02:12:13.483Z,63.47
2018-03-26T02:14:41.744Z,58.63
2018-03-26T02:17:10.790Z,71.60
2018-03-26T02:19:39.054Z,66.87
2018-03-26T02:22:07.311Z,71.77
2018-03-26T02:24:35.582Z,55.23
2018-03-26T02:27:03.847Z,61.23
2018-03-26T02:29:32.122Z,65.13
2018-03-26T02:32:01.154Z,60.80
2018-03-26T02:34:29.430Z,60.10
2018-03-26T02:36:57.756Z,59.60
2018-03-26T02:39:26.051Z,64.80
2018-03-26T02:41:55.216Z,56.67
2018-03-26T02:44:23.484Z,60.10
2018-03-26T02:46:52.532Z,52.73
2018-03-26T02:49:21.645Z,60.33
2018-03-26T02:51:49.957Z,61.03
2018-03-26T02:54:18.223Z,69.17
2018-03-26T02:56:46.491Z,63.03
2018-03-26T02:59:14.766Z,65.67
2018-03-26T03:01:43.027Z,63.97
2018-03-26T03:04:11.282Z,53.87
2018-03-26T03:06:39.563Z,61.77
2018-03-26T03:09:07.838Z,64.97
2018-03-26T03:11:36.099Z,68.10
2018-03-26T03:14:05.132Z,63.43
2018-03-26T03:16:33.399Z,51.50
2018-03-26T03:19:01.672Z,56.93
2018-03-26T03:21:29.930Z,59.03
2018-03-26T03:23:58.188Z,59.70
2018-03-26T03:26:28.083Z,63.57
2018-03-26T03:28:57.145Z,61.97
2018-03-26T03:31:25.424Z,52.63
2018-03-26T03:33:53.706Z,64.43
2018-03-26T03:36:21.969Z,60.53
2018-03-26T03:38:50.236Z,57.03
2018-03-26T03:41:18.502Z,56.90
2018-03-26T03:43:46.784Z,58.23
2018-03-26T03:46:15.071Z,45.90
2018-03-26T03:48:43.370Z,59.67
2018-03-26T03:51:11.645Z,62.30
2018-03-26T03:53:39.926Z,57.30
2018-03-26T03:56:09.219Z,57.97
2018-03-26T03:58:38.465Z,55.20
2018-03-26T04:01:07.515Z,54.03
2018-03-26T04:03:35.792Z,61.43
2018-03-26T04:06:04.099Z,60.77
2018-03-26T04:08:32.365Z,58.47
2018-03-26T04:11:01.308Z,54.43
2018-03-26T04:13:29.564Z,56.90
2018-03-26T04:15:57.840Z,55.63
2018-03-26T04:18:26.135Z,58.67
2018-03-26T04:20:54.396Z,56.27
2018-03-26T04:23:22.662Z,58.20
2018-03-26T04:25:51.744Z,62.50
2018-03-26T04:28:20.751Z,54.47
2018-03-26T04:30:49.803Z,56.10
2018-03-26T04:33:18.073Z,52.93
2018-03-26T04:35:46.340Z,63.77
2018-03-26T04:38:15.146Z,60.50
2018-03-26T04:40:43.402Z,66.17
2018-03-26T04:43:11.674Z,63.67
2018-03-26T04:45:39.951Z,60.03
2018-03-26T04:48:08.224Z,61.60
2018-03-26T04:50:36.517Z,56.07
2018-03-26T04:53:04.782Z,55.17
2018-03-26T04:55:33.060Z,60.90
2018-03-26T04:58:01.344Z,60.93
2018-03-26T05:00:29.657Z,61.17
2018-03-26T05:02:58.691Z,64.53
2018-03-26T05:05:26.987Z,63.03
2018-03-26T05:07:55.251Z,54.87
2018-03-26T05:10:24.110Z,50.47
2018-03-26T05:12:53.887Z,57.03
2018-03-26T05:15:22.227Z,54.47
2018-03-26T05:17:50.522Z,49.07
2018-03-26T05:20:18.788Z,57.27
2018-03-26T05:22:49.960Z,60.83
2018-03-26T05:25:18.260Z,54.10
2018-03-26T05:27:49.178Z,54.77
2018-03-26T05:30:20.415Z,58.77
2018-03-26T05:32:48.718Z,62.67
2018-03-26T05:35:16.978Z,54.50
2018-03-26T05:37:45.260Z,55.33
2018-03-26T05:40:13.548Z,63.43
2018-03-26T05:42:42.601Z,62.10
2018-03-26T05:45:11.897Z,66.23
2018-03-26T05:47:40.792Z,58.13
2018-03-26T05:50:14.164Z,52.40
2018-03-26T05:52:43.503Z,57.50
2018-03-26T05:55:12.701Z,48.00
2018-03-26T05:57:41.499Z,59.23
2018-03-26T06:00:11.029Z,60.13
2018-03-26T06:02:39.328Z,56.07
2018-03-26T06:05:07.585Z,65.20
2018-03-26T06:07:36.733Z,56.67
2018-03-26T06:10:05.010Z,60.90
2018-03-26T06:12:33.278Z,47.77
2018-03-26T06:15:02.524Z,56.23
2018-03-26T06:17:31.110Z,56.33
2018-03-26T06:20:00.274Z,56.53
2018-03-26T06:22:29.348Z,58.67
2018-03-26T06:24:58.593Z,47.77
2018-03-26T06:27:27.664Z,59.13
2018-03-26T06:29:56.628Z,46.27
2018-03-26T06:32:26.992Z,58.00
2018-03-26T06:34:57.985Z,60.07
2018-03-26T06:37:34.544Z,48.00
2018-03-26T06:40:05.122Z,55.90
2018-03-26T06:42:34.540Z,57.27
2018-03-26T06:45:03.387Z,57.77
2018-03-26T06:47:33.155Z,54.87
2018-03-26T06:50:03.368Z,57.97
2018-03-26T06:52:32.446Z,59.20
2018-03-26T06:55:01.568Z,51.57
2018-03-26T06:57:31.823Z,53.40
2018-03-26T07:00:00.099Z,58.30
2018-03-26T07:02:30.196Z,59.43
2018-03-26T07:04:59.225Z,53.70
2018-03-26T07:07:27.521Z,56.27
2018-03-26T07:09:55.806Z,51.73
2018-03-26T07:12:24.157Z,72.73
2018-03-26T07:14:52.412Z,59.30
2018-03-26T07:17:21.297Z,52.70
2018-03-26T07:19:49.582Z,57.97
2018-03-26T07:22:17.876Z,60.13
2018-03-26T07:24:46.146Z,57.03
2018-03-26T07:27:14.440Z,50.37
2018-03-26T07:29:42.719Z,55.83
2018-03-26T07:32:11.820Z,53.07
2018-03-26T07:34:40.189Z,51.47
2018-03-26T07:37:09.247Z,55.17
2018-03-26T07:39:37.561Z,56.50
2018-03-26T07:42:05.841Z,56.20
2018-03-26T07:44:34.185Z,61.70
2018-03-26T07:47:03.241Z,60.40
2018-03-26T07:49:32.289Z,60.30
2018-03-26T07:52:00.589Z,63.20
2018-03-26T07:54:28.903Z,57.93
2018-03-26T07:56:57.953Z,63.03
2018-03-26T07:59:26.242Z,63.53
2018-03-26T08:01:55.036Z,62.87
2018-03-26T08:04:23.297Z,59.87
2018-03-26T08:06:51.569Z,55.23
2018-03-26T08:09:21.396Z,59.03
2018-03-26T08:11:49.668Z,36.60
2018-03-26T08:14:17.975Z,55.57
2018-03-26T08:16:47.912Z,60.00
2018-03-26T08:19:17.441Z,56.13
2018-03-26T08:21:45.741Z,57.30
2018-03-26T08:24:14.015Z,71.23
2018-03-26T08:26:42.290Z,69.63
2018-03-26T08:29:10.604Z,66.03
2018-03-26T08:31:39.666Z,54.53
2018-03-26T08:34:07.990Z,63.87
2018-03-26T08:36:36.307Z,69.67
2018-03-26T08:39:04.606Z,65.80
2018-03-26T08:41:34.373Z,70.70
2018-03-26T08:44:02.686Z,65.97
2018-03-26T08:46:30.960Z,51.37
2018-03-26T08:48:59.252Z,66.30
2018-03-26T08:51:29.103Z,66.27
2018-03-26T08:53:57.408Z,55.40
2018-03-26T08:56:25.657Z,64.00
2018-03-26T08:58:53.949Z,62.03
2018-03-26T09:01:22.237Z,57.60
2018-03-26T09:03:50.494Z,65.33
2018-03-26T09:06:18.751Z,64.60
2018-03-26T09:08:47.788Z,74.20
2018-03-26T09:11:16.069Z,60.00
2018-03-26T09:13:44.335Z,59.57
2018-03-26T09:16:12.620Z,55.63
2018-03-26T09:18:40.878Z,60.50
2018-03-26T09:21:09.159Z,58.77
2018-03-26T09:23:37.518Z,61.23
2018-03-26T09:26:05.895Z,53.43
2018-03-26T09:28:34.132Z,58.50
2018-03-26T09:31:03.159Z,59.10
2018-03-26T09:33:31.468Z,69.97
2018-03-26T09:35:59.731Z,76.53
2018-03-26T09:38:28.091Z,67.77
2018-03-26T09:40:56.349Z,64.13
2018-03-26T09:43:24.625Z,63.37
2018-03-26T09:45:53.639Z,59.87
2018-03-26T09:48:21.897Z,61.30
2018-03-26T09:50:50.968Z,63.37
2018-03-26T09:53:19.303Z,62.50
2018-03-26T09:55:47.551Z,66.93
2018-03-26T09:58:15.798Z,79.27
2018-03-26T10:00:49.095Z,72.30
2018-03-26T10:03:17.372Z,58.03
2018-03-26T10:05:45.690Z,61.47
2018-03-26T10:08:13.967Z,68.93
2018-03-26T10:10:42.244Z,74.97
2018-03-26T10:13:10.659Z,62.73
2018-03-26T10:15:38.932Z,68.13
2018-03-26T10:18:07.216Z,83.23
2018-03-26T10:20:35.520Z,65.90
2018-03-26T10:23:03.787Z,72.50
2018-03-26T10:25:32.975Z,68.97
2018-03-26T10:28:01.343Z,72.20
2018-03-26T10:30:29.620Z,83.53
2018-03-26T10:32:57.892Z,82.23
2018-03-26T10:35:26.166Z,72.80
2018-03-26T10:37:54.432Z,81.03
2018-03-26T10:40:22.839Z,66.70
2018-03-26T10:42:51.131Z,74.53
2018-03-26T10:45:20.197Z,67.20
2018-03-26T10:47:48.458Z,70.57
2018-03-26T10:50:16.744Z,66.20
2018-03-26T10:52:45.121Z,71.47
2018-03-26T10:55:13.524Z,62.50
2018-03-26T10:57:41.821Z,68.43
2018-03-26T11:00:11.083Z,67.40
2018-03-26T11:02:39.355Z,62.97
2018-03-26T11:05:07.619Z,71.10
2018-03-26T11:07:36.009Z,65.80
2018-03-26T11:10:04.286Z,60.30
2018-03-26T11:12:32.556Z,58.13
2018-03-26T11:15:00.892Z,59.53
2018-03-26T11:17:29.188Z,48.20
2018-03-26T11:19:57.491Z,42.83
2018-03-26T11:22:25.739Z,49.77
2018-03-26T11:24:54.078Z,45.37
2018-03-26T11:27:23.263Z,45.00
2018-03-26T11:29:51.619Z,46.13
2018-03-26T11:32:20.039Z,41.43
2018-03-26T11:34:49.090Z,42.63
2018-03-26T11:37:17.366Z,40.20
2018-03-26T11:39:45.704Z,48.13
2018-03-26T11:42:14.734Z,33.20
2018-03-26T11:44:43.026Z,33.70
2018-03-26T11:47:11.308Z,38.27
2018-03-26T11:49:39.649Z,47.67
2018-03-26T11:52:08.657Z,45.97
2018-03-26T11:54:36.949Z,38.70
2018-03-26T11:57:05.219Z,42.20
2018-03-26T11:59:33.564Z,40.77
2018-03-26T12:02:02.650Z,40.93
2018-03-26T12:04:30.983Z,36.00
2018-03-26T12:06:59.260Z,36.73
2018-03-26T12:09:27.751Z,40.83
2018-03-26T12:11:56.030Z,39.80
2018-03-26T12:14:24.325Z,34.40
2018-03-26T12:16:53.472Z,35.70
2018-03-26T12:19:21.880Z,34.70
2018-03-26T12:21:50.132Z,29.07
2018-03-26T12:27:26.219Z,43.97
2018-03-26T12:30:07.584Z,26.60
2018-03-26T12:32:35.848Z,32.80
2018-03-26T12:35:16.831Z,28.97
2018-03-26T12:37:45.102Z,33.00
2018-03-26T12:40:25.962Z,30.80
2018-03-26T12:42:54.286Z,27.00
2018-03-26T12:45:34.791Z,35.40
2018-03-26T12:48:03.127Z,30.40
2018-03-26T12:50:44.271Z,36.83
2018-03-26T12:53:13.495Z,31.33
2018-03-26T12:55:41.765Z,32.80
2018-03-26T12:58:22.009Z,33.37
2018-03-26T13:01:02.502Z,32.57
2018-03-26T13:03:30.800Z,41.30
2018-03-26T13:05:59.960Z,36.93
2018-03-26T13:08:28.245Z,36.10
2018-03-26T13:10:56.516Z,32.17
2018-03-26T13:13:24.830Z,36.20
2018-03-26T13:15:53.898Z,36.70
2018-03-26T13:18:22.931Z,30.73
2018-03-26T13:20:51.230Z,30.50
2018-03-26T13:23:19.501Z,27.50
2018-03-26T13:25:47.784Z,30.83
2018-03-26T13:28:16.908Z,24.27
2018-03-26T13:30:45.154Z,26.47
2018-03-26T13:33:13.446Z,21.23
2018-03-26T13:35:41.750Z,26.67
2018-03-26T13:38:10.036Z,29.77
2018-03-26T13:40:38.320Z,25.77
2018-03-26T13:43:07.375Z,31.83
2018-03-26T13:45:35.740Z,33.43
2018-03-26T13:48:04.024Z,24.67
2018-03-26T13:50:32.329Z,23.90
2018-03-26T13:53:00.612Z,26.00
2018-03-26T13:55:28.921Z,26.80
2018-03-26T13:57:57.178Z,24.80
2018-03-26T14:00:26.231Z,20.70
2018-03-26T14:02:54.479Z,17.23
2018-03-26T14:05:22.770Z,23.73
2018-03-26T14:07:51.098Z,18.80
2018-03-26T14:10:32.160Z,16.40
2018-03-26T14:13:12.422Z,22.00
2018-03-26T14:15:53.674Z,24.83
2018-03-26T14:18:21.946Z,19.87
2018-03-26T14:20:50.450Z,19.00
2018-03-26T14:23:18.773Z,20.87
2018-03-26T14:25:47.173Z,17.43
2018-03-26T14:28:15.464Z,17.80
2018-03-26T14:30:43.839Z,20.17
2018-03-26T14:33:12.145Z,21.20
2018-03-26T14:35:40.441Z,16.90
2018-03-26T14:38:09.483Z,20.80
2018-03-26T14:40:37.755Z,16.20
2018-03-26T14:43:06.143Z,19.33
2018-03-26T14:45:34.442Z,14.43
2018-03-26T14:48:03.496Z,14.73
2018-03-26T14:50:31.787Z,21.30
2018-03-26T14:53:00.065Z,13.40
2018-03-26T14:55:28.323Z,17.27
2018-03-26T14:57:56.578Z,12.60
2018-03-26T15:00:24.893Z,10.30
2018-03-26T15:02:53.175Z,11.67
2018-03-26T15:05:21.470Z,13.20
2018-03-26T15:07:49.771Z,12.20
2018-03-26T15:10:18.831Z,17.63
2018-03-26T15:12:47.241Z,9.27
2018-03-26T15:15:16.254Z,15.60
2018-03-26T15:17:45.291Z,13.80
2018-03-26T15:20:13.531Z,10.60
2018-03-26T15:22:42.781Z,13.07
2018-03-26T15:25:11.241Z,12.33
2018-03-26T15:27:39.498Z,8.30
2018-03-26T15:30:07.789Z,16.87
2018-03-26T15:32:36.069Z,11.03
2018-03-26T15:35:04.367Z,11.13
2018-03-26T15:37:32.732Z,15.47
2018-03-26T15:40:01.071Z,11.90
2018-03-26T15:42:29.359Z,13.93
2018-03-26T15:44:57.603Z,24.43
2018-03-26T15:47:25.873Z,30.87
2018-03-26T15:49:55.012Z,24.87
2018-03-26T15:52:23.296Z,29.13
2018-03-26T15:54:51.557Z,23.47
2018-03-26T15:57:19.821Z,32.27
2018-03-26T15:59:48.088Z,32.03
2018-03-26T16:04:52.687Z,34.50
2018-03-26T16:07:20.976Z,31.63
2018-03-26T16:09:49.283Z,29.57
2018-03-26T16:12:18.929Z,31.67
2018-03-26T16:14:47.177Z,28.63
2018-03-26T16:17:15.438Z,28.97
2018-03-26T16:19:43.710Z,30.27
2018-03-26T16:22:12.756Z,31.33
2018-03-26T16:24:41.022Z,25.43
2018-03-26T16:27:09.844Z,32.90
2018-03-26T16:29:38.214Z,36.00
2018-03-26T16:32:06.451Z,26.33
2018-03-26T16:34:34.705Z,26.63
2018-03-26T16:37:03.749Z,34.80
2018-03-26T16:39:31.986Z,21.03
2018-03-26T16:42:12.095Z,20.17
2018-03-26T16:44:40.570Z,25.33
2018-03-26T16:47:08.888Z,25.53
2018-03-26T16:49:37.900Z,25.03
2018-03-26T16:52:06.174Z,32.50
2018-03-26T16:54:34.443Z,31.87
2018-03-26T16:57:02.700Z,28.20
2018-03-26T16:59:31.869Z,25.33
2018-03-26T17:02:00.139Z,19.40
2018-03-26T17:04:28.409Z,15.90
2018-03-26T17:06:56.651Z,23.30
2018-03-26T17:09:24.906Z,16.33
2018-03-26T17:11:53.904Z,15.40
2018-03-26T17:14:22.150Z,13.57
2018-03-26T17:16:50.395Z,11.80
2018-03-26T17:19:18.668Z,11.27
2018-03-26T17:21:46.929Z,14.27
2018-03-26T17:24:15.159Z,8.93
2018-03-26T17:26:44.169Z,10.27
2018-03-26T17:29:12.434Z,9.23
2018-03-26T17:31:40.698Z,9.67
2018-03-26T17:34:08.959Z,10.03
2018-03-26T17:36:37.257Z,7.93
2018-03-26T17:39:06.271Z,7.10
2018-03-26T17:41:34.524Z,7.17
2018-03-26T17:44:02.762Z,7.53
2018-03-26T17:46:31.563Z,6.00
2018-03-26T17:48:59.821Z,5.60
2018-03-26T17:51:28.078Z,4.63
2018-03-26T17:53:56.331Z,8.33
2018-03-26T17:56:25.390Z,15.30
2018-03-26T17:58:53.830Z,9.30
2018-03-26T18:01:22.105Z,7.03
2018-03-26T18:03:50.405Z,8.63
2018-03-26T18:06:18.636Z,8.70
2018-03-26T18:08:47.674Z,11.57
2018-03-26T18:11:15.973Z,11.20
2018-03-26T18:13:44.214Z,6.30
2018-03-26T18:16:12.461Z,10.40
2018-03-26T18:18:40.781Z,10.60
2018-03-26T18:21:09.027Z,4.57
2018-03-26T18:23:37.290Z,8.10
2018-03-26T18:26:06.319Z,7.23
2018-03-26T18:28:34.601Z,10.63
2018-03-26T18:31:02.842Z,5.90
2018-03-26T18:33:31.112Z,10.07
2018-03-26T18:36:00.513Z,16.40
2018-03-26T18:38:29.534Z,12.83
2018-03-26T18:40:57.792Z,16.83
2018-03-26T18:43:26.057Z,16.03
2018-03-26T18:45:54.394Z,17.43
2018-03-26T18:48:22.653Z,10.57
2018-03-26T18:50:50.894Z,13.07
2018-03-26T18:53:19.143Z,8.87
2018-03-26T18:55:47.384Z,13.20
2018-03-26T18:58:15.627Z,12.33
2018-03-26T19:00:43.943Z,11.23
2018-03-26T19:03:12.180Z,10.13
2018-03-26T19:05:41.211Z,10.73
2018-03-26T19:08:09.446Z,13.80
2018-03-26T19:10:37.694Z,11.17
2018-03-26T19:13:06.691Z,7.20
2018-03-26T19:15:35.707Z,5.77
2018-03-26T19:18:03.941Z,7.10
2018-03-26T19:20:32.197Z,5.77
2018-03-26T19:23:00.470Z,8.97
2018-03-26T19:25:28.698Z,9.50
2018-03-26T19:27:57.704Z,5.37
2018-03-26T19:30:26.812Z,25.30
2018-03-26T19:32:55.044Z,20.10
2018-03-26T19:35:24.058Z,9.27
2018-03-26T19:37:52.302Z,12.73
2018-03-26T19:40:20.544Z,10.90
2018-03-26T19:42:48.808Z,9.27
2018-03-26T19:45:17.053Z,7.27
2018-03-26T19:47:46.118Z,6.70
2018-03-26T19:50:14.368Z,8.23
2018-03-26T19:52:42.703Z,8.90
2018-03-26T19:55:11.769Z,8.13
2018-03-26T19:57:40.019Z,5.77
2018-03-26T20:00:08.241Z,7.43
2018-03-26T20:02:37.276Z,9.43
2018-03-26T20:05:05.532Z,11.37
2018-03-26T20:07:33.795Z,16.90
2018-03-26T20:10:02.819Z,11.63
2018-03-26T20:12:31.076Z,17.07
2018-03-26T20:14:59.338Z,9.30
2018-03-26T20:17:28.357Z,11.90
2018-03-26T20:19:56.632Z,10.17
2018-03-26T20:22:24.888Z,11.30
2018-03-26T20:24:54.028Z,11.20
2018-03-26T20:27:22.267Z,9.20
2018-03-26T20:29:50.476Z,9.77
2018-03-26T20:32:18.688Z,14.70
2018-03-26T20:34:47.652Z,11.30
2018-03-26T20:37:15.948Z,10.37
2018-03-26T20:39:44.976Z,12.90
2018-03-26T20:42:13.239Z,11.40
2018-03-26T20:44:42.286Z,13.73
2018-03-26T20:47:10.666Z,9.03
2018-03-26T20:49:38.910Z,15.33
2018-03-26T20:52:07.171Z,11.27
2018-03-26T20:54:36.200Z,9.10
2018-03-26T20:57:05.524Z,12.27
2018-03-26T20:59:33.807Z,14.67
2018-03-26T21:02:02.071Z,16.60
2018-03-26T21:04:30.336Z,8.27
2018-03-26T21:06:58.641Z,11.43
2018-03-26T21:09:26.878Z,10.10
2018-03-26T21:11:55.139Z,15.40
2018-03-26T21:14:23.403Z,9.07
2018-03-26T21:16:51.655Z,7.20
2018-03-26T21:19:19.917Z,10.17
2018-03-26T21:21:48.964Z,11.57
2018-03-26T21:24:17.212Z,20.87
2018-03-26T21:26:46.238Z,14.50
2018-03-26T21:29:14.488Z,7.10
2018-03-26T21:31:43.504Z,8.07
2018-03-26T21:34:12.536Z,11.80
2018-03-26T21:36:40.810Z,8.93
2018-03-26T21:39:09.688Z,8.93
2018-03-26T21:41:37.983Z,7.87
2018-03-26T21:44:06.253Z,9.90
2018-03-26T21:46:34.504Z,8.20
2018-03-26T21:49:02.759Z,6.27
2018-03-26T21:51:31.017Z,8.03
2018-03-26T21:54:00.173Z,11.50
2018-03-26T21:56:28.430Z,8.53
2018-03-26T21:58:56.693Z,8.90
2018-03-26T22:01:24.998Z,17.83
2018-03-26T22:03:53.256Z,24.83
2018-03-26T22:06:21.553Z,21.23
2018-03-26T22:08:49.821Z,30.93
2018-03-26T22:11:18.081Z,24.43
2018-03-26T22:13:46.344Z,22.83
2018-03-26T22:16:14.596Z,25.10
2018-03-26T22:18:43.632Z,20.10
2018-03-26T22:21:11.899Z,11.80
2018-03-26T22:23:40.166Z,12.93
2018-03-26T22:26:08.426Z,12.87
2018-03-26T22:28:37.450Z,12.40
2018-03-26T22:31:05.742Z,12.73
2018-03-26T22:33:34.004Z,9.90
2018-03-26T22:36:02.266Z,11.30
2018-03-26T22:38:30.528Z,9.90
2018-03-26T22:40:58.798Z,11.70
2018-03-26T22:43:27.812Z,11.30
2018-03-26T22:45:56.068Z,11.30
2018-03-26T22:48:25.088Z,10.17
2018-03-26T22:50:53.336Z,24.97
2018-03-26T22:53:21.603Z,38.90
2018-03-26T22:55:50.642Z,37.13
2018-03-26T22:58:18.909Z,27.63
2018-03-26T23:00:47.180Z,20.33
2018-03-26T23:03:15.438Z,10.20
2018-03-26T23:05:43.702Z,18.83
2018-03-26T23:08:12.720Z,16.67
2018-03-26T23:10:40.982Z,10.53
2018-03-26T23:13:10.003Z,20.47
2018-03-26T23:15:38.259Z,15.90
2018-03-26T23:18:06.537Z,10.77
2018-03-26T23:20:35.362Z,8.93
2018-03-26T23:23:03.609Z,9.70
2018-03-26T23:25:31.861Z,10.40
2018-03-26T23:28:00.891Z,16.87
2018-03-26T23:30:29.175Z,10.27
2018-03-26T23:32:57.442Z,7.20
2018-03-26T23:35:25.719Z,10.80
2018-03-26T23:37:53.985Z,7.77
2018-03-26T23:40:22.248Z,13.73
2018-03-26T23:42:50.504Z,5.97
2018-03-26T23:45:18.766Z,9.03
2018-03-26T23:47:47.037Z,10.93
2018-03-26T23:50:15.334Z,12.57
2018-03-26T23:52:44.401Z,13.10
2018-03-26T23:55:12.659Z,7.80
2018-03-26T23:57:40.921Z,8.27
